Time;durP1;ratioP1;P1;durP2;ratioP2;P2;SDS_P1;SDS_P2;PMS_P1;PMS_P2;Temp;Humidity;BMP_temperature;BMP_pressure;BME280_temperature;BME280_humidity;BME280_pressure;Samples;Min_cycle;Max_cycle;Signal;HPM_P1;HPM_P2
2022/06/30 00:02:05;;;;;;;;;;;19.70;99.90;;;;;;5004057;28;20065;-75
2022/06/30 00:04:31;;;;;;;;;;;19.70;99.90;;;;;;4987980;28;20005;-75
2022/06/30 00:06:56;;;;;;;;;;;19.70;99.90;;;;;;5002269;28;20011;-75
2022/06/30 00:09:22;;;;;;;;;;;19.70;99.90;;;;;;5004416;28;19929;-75
2022/06/30 00:11:47;;;;;;;;;;;19.60;99.90;;;;;;5005870;28;20372;-75
2022/06/30 00:14:13;;;;;;;;;;;19.60;99.90;;;;;;5001619;28;19984;-75
2022/06/30 00:16:39;;;;;;;;;;;19.50;99.90;;;;;;5004983;28;19925;-75
2022/06/30 00:19:04;;;;;;;;;;;19.50;99.90;;;;;;4988229;28;19953;-75
2022/06/30 00:21:31;;;;;;;;;;;19.40;99.90;;;;;;5005190;28;19967;-75
2022/06/30 00:23:57;;;;;;;;;;;19.30;99.90;;;;;;5004633;28;19953;-75
2022/06/30 00:26:22;;;;;;;;;;;19.30;99.90;;;;;;5003397;28;19925;-75
2022/06/30 00:28:48;;;;;;;;;;;19.20;99.90;;;;;;5004078;28;19972;-75
2022/06/30 00:31:13;;;;;;;;;;;19.20;99.90;;;;;;5002877;28;20383;-75
2022/06/30 00:33:39;;;;;;;;;;;19.20;99.90;;;;;;5003569;28;19918;-75
2022/06/30 00:36:04;;;;;;;;;;;19.10;99.90;;;;;;5002964;28;20422;-75
2022/06/30 00:38:30;;;;;;;;;;;19.10;99.90;;;;;;5002544;28;19940;-75
2022/06/30 00:40:55;;;;;;;;;;;19.10;99.90;;;;;;5002562;28;20348;-75
2022/06/30 00:43:21;;;;;;;;;;;19.00;99.90;;;;;;5002020;28;19918;-75
2022/06/30 00:45:48;;;;;;;;;;;19.00;99.90;;;;;;5003431;28;20399;-75
2022/06/30 00:48:14;;;;;;;;;;;19.00;99.90;;;;;;5002227;28;19917;-75
2022/06/30 00:50:40;;;;;;;;;;;18.90;99.90;;;;;;5003987;28;19925;-75
2022/06/30 00:53:07;;;;;;;;;;;18.90;99.90;;;;;;5003307;28;20394;-75
2022/06/30 00:55:32;;;;;;;;;;;18.90;99.90;;;;;;5003393;28;19921;-75
2022/06/30 00:58:03;;;;;;;;;;;18.90;99.90;;;;;;5003332;28;20518;-75
2022/06/30 01:00:49;;;;;;;;;;;18.80;99.90;;;;;;5002751;28;19921;-75
2022/06/30 01:03:15;;;;;;;;;;;18.80;99.90;;;;;;5001848;28;19924;-75
2022/06/30 01:05:40;;;;;;;;;;;18.80;99.90;;;;;;5001523;28;20451;-75
2022/06/30 01:08:06;;;;;;;;;;;18.70;99.90;;;;;;5003668;28;20364;-75
2022/06/30 01:13:36;;;;;;;;;;;18.70;99.90;;;;;;4976045;28;19925;-75
2022/06/30 01:16:01;;;;;;;;;;;18.70;99.90;;;;;;4976889;28;20369;-75
2022/06/30 01:18:27;;;;;;;;;;;18.60;99.90;;;;;;4982451;28;20298;-75
2022/06/30 01:20:53;;;;;;;;;;;18.70;99.90;;;;;;5004522;28;20287;-75
2022/06/30 01:23:18;;;;;;;;;;;18.60;99.90;;;;;;5007133;28;19968;-75
2022/06/30 01:25:45;;;;;;;;;;;18.50;99.90;;;;;;4973172;28;20457;-75
2022/06/30 01:28:11;;;;;;;;;;;18.50;99.90;;;;;;5006116;28;19917;-75
2022/06/30 01:30:36;;;;;;;;;;;18.50;99.90;;;;;;4974956;28;19971;-75
2022/06/30 01:33:02;;;;;;;;;;;18.50;99.90;;;;;;5005113;28;20280;-75
2022/06/30 01:35:28;;;;;;;;;;;18.40;99.90;;;;;;5004436;28;20060;-75
2022/06/30 01:37:57;;;;;;;;;;;18.40;99.90;;;;;;5006249;28;21566;-75
2022/06/30 01:40:24;;;;;;;;;;;18.40;99.90;;;;;;5006751;28;19927;-75
2022/06/30 01:42:50;;;;;;;;;;;18.40;99.90;;;;;;5006480;28;19940;-75
2022/06/30 01:45:16;;;;;;;;;;;18.40;99.90;;;;;;5004701;28;19924;-75
2022/06/30 01:47:42;;;;;;;;;;;18.30;99.90;;;;;;5005832;28;20299;-75
2022/06/30 01:50:09;;;;;;;;;;;18.30;99.90;;;;;;5005565;28;20005;-75
2022/06/30 01:52:34;;;;;;;;;;;18.30;99.90;;;;;;5006475;28;20327;-75
2022/06/30 01:55:00;;;;;;;;;;;18.30;99.90;;;;;;5006613;28;19948;-75
2022/06/30 01:57:26;;;;;;;;;;;18.20;99.90;;;;;;4989303;28;19921;-75
2022/06/30 01:59:51;;;;;;;;;;;18.20;99.90;;;;;;5005586;28;19917;-75
2022/06/30 02:02:17;;;;;;;;;;;18.20;99.90;;;;;;4989651;28;20167;-75
2022/06/30 02:04:50;;;;;;;;;;;18.10;99.90;;;;;;5003491;28;19972;-75
2022/06/30 02:07:17;;;;;;;;;;;18.10;99.90;;;;;;5006252;28;19925;-75
2022/06/30 02:09:43;;;;;;;;;;;18.10;99.90;;;;;;4987941;28;19925;-75
2022/06/30 02:14:53;;;;;;;;;;;18.10;99.90;;;;;;5005351;28;19925;-75
2022/06/30 02:17:19;;;;;;;;;;;18.00;99.90;;;;;;5006642;28;19921;-75
2022/06/30 02:19:45;;;;;;;;;;;18.00;99.90;;;;;;5001478;28;19929;-75
2022/06/30 02:22:10;;;;;;;;;;;18.00;99.90;;;;;;5000225;28;19917;-75
2022/06/30 02:24:36;;;;;;;;;;;17.90;99.90;;;;;;5002779;28;19995;-75
2022/06/30 02:27:02;;;;;;;;;;;17.90;99.90;;;;;;5003702;28;19924;-75
2022/06/30 02:29:27;;;;;;;;;;;17.90;99.90;;;;;;5006454;28;19917;-75
2022/06/30 02:31:53;;;;;;;;;;;17.90;99.90;;;;;;5002211;28;20498;-75
2022/06/30 02:34:19;;;;;;;;;;;17.90;99.90;;;;;;5003322;28;20264;-75
2022/06/30 02:36:44;;;;;;;;;;;17.90;99.90;;;;;;5005059;28;20360;-75
2022/06/30 02:39:10;;;;;;;;;;;17.80;99.90;;;;;;5003944;28;19921;-75
2022/06/30 02:41:36;;;;;;;;;;;17.80;99.90;;;;;;4988994;28;20343;-75
2022/06/30 02:44:02;;;;;;;;;;;17.80;99.90;;;;;;5005767;28;20942;-75
2022/06/30 02:46:28;;;;;;;;;;;17.80;99.90;;;;;;5022244;28;19939;-75
2022/06/30 02:48:53;;;;;;;;;;;17.80;99.90;;;;;;5005675;28;19917;-75
2022/06/30 02:51:19;;;;;;;;;;;17.80;99.90;;;;;;5004928;28;19918;-75
2022/06/30 02:53:45;;;;;;;;;;;17.70;99.90;;;;;;5007286;28;20351;-75
2022/06/30 02:56:11;;;;;;;;;;;17.70;99.90;;;;;;5004868;28;19976;-74
2022/06/30 02:58:37;;;;;;;;;;;17.70;99.90;;;;;;5004749;28;19921;-75
2022/06/30 03:01:03;;;;;;;;;;;17.80;99.90;;;;;;5003478;28;19921;-75
2022/06/30 03:03:28;;;;;;;;;;;17.70;99.90;;;;;;5004567;28;20272;-75
2022/06/30 03:05:54;;;;;;;;;;;17.70;99.90;;;;;;5002464;28;19965;-75
2022/06/30 03:08:20;;;;;;;;;;;17.60;99.90;;;;;;5006083;28;19929;-75
2022/06/30 03:10:45;;;;;;;;;;;17.60;99.90;;;;;;5000293;28;21351;-75
2022/06/30 03:13:11;;;;;;;;;;;17.60;99.90;;;;;;5003242;28;19964;-75
2022/06/30 03:15:37;;;;;;;;;;;17.60;99.90;;;;;;5002193;28;20320;-75
2022/06/30 03:18:02;;;;;;;;;;;17.50;99.90;;;;;;5002806;28;19925;-75
2022/06/30 03:20:28;;;;;;;;;;;17.50;99.90;;;;;;5002937;28;20491;-75
2022/06/30 03:22:54;;;;;;;;;;;17.50;99.90;;;;;;4986927;28;19917;-75
2022/06/30 03:25:20;;;;;;;;;;;17.50;99.90;;;;;;4988723;28;20364;-75
2022/06/30 03:27:45;;;;;;;;;;;17.50;99.90;;;;;;5004515;28;19917;-75
2022/06/30 03:30:11;;;;;;;;;;;17.40;99.90;;;;;;4986603;28;20367;-75
2022/06/30 03:32:37;;;;;;;;;;;17.40;99.90;;;;;;5004114;28;19975;-75
2022/06/30 03:35:04;;;;;;;;;;;17.40;99.90;;;;;;5003009;28;19925;-75
2022/06/30 03:37:29;;;;;;;;;;;17.40;99.90;;;;;;5004820;28;19925;-75
2022/06/30 03:39:55;;;;;;;;;;;17.40;99.90;;;;;;5001759;28;19942;-75
2022/06/30 03:42:20;;;;;;;;;;;17.40;99.90;;;;;;5005350;28;19925;-75
2022/06/30 03:44:46;;;;;;;;;;;17.40;99.90;;;;;;4987059;28;19925;-75
2022/06/30 03:47:12;;;;;;;;;;;17.40;99.90;;;;;;5003852;28;19925;-75
2022/06/30 03:49:37;;;;;;;;;;;17.40;99.90;;;;;;5003284;28;19921;-75
2022/06/30 03:52:03;;;;;;;;;;;17.40;99.90;;;;;;5003288;28;20260;-75
2022/06/30 03:54:29;;;;;;;;;;;17.40;99.90;;;;;;4986333;28;19921;-75
2022/06/30 03:56:54;;;;;;;;;;;17.40;99.90;;;;;;4999903;28;19932;-75
2022/06/30 03:59:20;;;;;;;;;;;17.30;99.90;;;;;;5005664;28;19926;-75
2022/06/30 04:01:45;;;;;;;;;;;17.40;99.90;;;;;;5002293;28;19917;-75
2022/06/30 04:04:11;;;;;;;;;;;17.40;99.90;;;;;;5005632;28;20404;-75
2022/06/30 04:06:36;;;;;;;;;;;17.30;99.90;;;;;;5004399;28;20007;-75
2022/06/30 04:09:02;;;;;;;;;;;17.30;99.90;;;;;;4987244;28;19984;-75
2022/06/30 04:11:28;;;;;;;;;;;17.30;99.90;;;;;;5000665;28;20044;-75
2022/06/30 04:13:53;;;;;;;;;;;17.30;99.90;;;;;;5004290;28;19924;-75
2022/06/30 04:16:19;;;;;;;;;;;17.30;99.90;;;;;;5003504;28;19918;-75
2022/06/30 04:18:44;;;;;;;;;;;17.30;99.90;;;;;;5005304;28;19924;-75
2022/06/30 04:21:11;;;;;;;;;;;17.30;99.90;;;;;;5002892;28;19961;-74
2022/06/30 04:23:37;;;;;;;;;;;17.40;99.90;;;;;;5002743;28;19922;-75
2022/06/30 04:26:03;;;;;;;;;;;17.40;99.90;;;;;;5004047;28;19917;-75
2022/06/30 04:28:28;;;;;;;;;;;17.40;99.90;;;;;;5004779;28;19918;-75
2022/06/30 04:33:38;;;;;;;;;;;17.50;99.90;;;;;;5001829;28;19921;-75
2022/06/30 04:36:04;;;;;;;;;;;17.50;99.90;;;;;;5004096;28;19917;-75
2022/06/30 04:38:30;;;;;;;;;;;17.50;99.90;;;;;;5002832;28;20443;-75
2022/06/30 04:43:40;;;;;;;;;;;17.60;99.90;;;;;;5004598;28;19964;-75
2022/06/30 04:46:05;;;;;;;;;;;17.60;99.90;;;;;;5003975;28;20391;-75
2022/06/30 04:48:31;;;;;;;;;;;17.60;99.90;;;;;;5003673;28;19961;-75
2022/06/30 04:50:56;;;;;;;;;;;17.70;99.90;;;;;;5000544;28;19918;-75
2022/06/30 04:53:22;;;;;;;;;;;17.70;99.90;;;;;;5008516;28;19921;-75
2022/06/30 04:55:49;;;;;;;;;;;17.80;99.90;;;;;;4991855;28;19918;-75
2022/06/30 04:58:14;;;;;;;;;;;17.80;99.90;;;;;;5007105;28;20376;-75
2022/06/30 05:00:40;;;;;;;;;;;17.90;99.90;;;;;;5005295;28;19924;-75
2022/06/30 05:03:05;;;;;;;;;;;17.90;99.90;;;;;;5008617;28;20394;-75
2022/06/30 05:05:31;;;;;;;;;;;17.90;99.90;;;;;;5007850;28;19917;-75
2022/06/30 05:07:57;;;;;;;;;;;18.00;99.90;;;;;;5007858;28;19917;-75
2022/06/30 05:10:22;;;;;;;;;;;18.00;99.90;;;;;;5007322;28;19976;-75
2022/06/30 05:12:48;;;;;;;;;;;18.00;99.90;;;;;;5007872;28;19925;-75
2022/06/30 05:15:13;;;;;;;;;;;18.00;99.90;;;;;;5005635;28;19924;-75
2022/06/30 05:17:39;;;;;;;;;;;18.10;99.90;;;;;;5007854;28;19928;-75
2022/06/30 05:20:05;;;;;;;;;;;18.10;99.90;;;;;;5003872;28;19922;-75
2022/06/30 05:22:30;;;;;;;;;;;18.20;99.90;;;;;;5004662;28;19927;-75
2022/06/30 05:27:43;;;;;;;;;;;18.20;99.90;;;;;;5004819;28;20299;-75
2022/06/30 05:30:10;;;;;;;;;;;18.40;99.90;;;;;;5002053;28;19940;-75
2022/06/30 05:32:36;;;;;;;;;;;18.40;99.90;;;;;;5015904;28;19925;-74
2022/06/30 05:35:02;;;;;;;;;;;18.40;99.90;;;;;;5003300;28;20204;-74
2022/06/30 05:37:28;;;;;;;;;;;18.50;99.90;;;;;;4984743;28;20369;-74
2022/06/30 05:39:53;;;;;;;;;;;18.60;99.90;;;;;;5000487;28;19917;-74
2022/06/30 05:42:19;;;;;;;;;;;18.70;99.90;;;;;;4998627;28;19918;-74
2022/06/30 05:44:45;;;;;;;;;;;18.70;99.90;;;;;;5000080;28;19933;-74
2022/06/30 05:47:11;;;;;;;;;;;18.80;99.90;;;;;;5009691;28;20019;-74
2022/06/30 05:49:37;;;;;;;;;;;18.90;99.90;;;;;;5003406;28;20048;-74
2022/06/30 05:52:03;;;;;;;;;;;18.90;99.90;;;;;;5004136;28;19976;-74
2022/06/30 05:54:28;;;;;;;;;;;19.00;99.90;;;;;;4987903;28;19924;-74
2022/06/30 05:56:54;;;;;;;;;;;19.10;99.90;;;;;;5001671;28;19929;-74
2022/06/30 05:59:20;;;;;;;;;;;19.10;99.90;;;;;;5003488;28;19918;-74
2022/06/30 06:01:45;;;;;;;;;;;19.20;99.90;;;;;;4998742;28;19917;-74
2022/06/30 06:04:11;;;;;;;;;;;19.30;99.90;;;;;;4999708;28;19925;-75
2022/06/30 06:06:36;;;;;;;;;;;19.30;99.90;;;;;;4987304;28;19984;-74
2022/06/30 06:09:02;;;;;;;;;;;19.40;99.90;;;;;;5003055;28;19929;-74
2022/06/30 06:11:28;;;;;;;;;;;19.50;99.90;;;;;;5001912;28;19921;-75
2022/06/30 06:13:53;;;;;;;;;;;19.60;99.90;;;;;;4998018;28;20513;-75
2022/06/30 06:16:19;;;;;;;;;;;19.70;99.90;;;;;;4999414;28;19921;-74
2022/06/30 06:18:44;;;;;;;;;;;19.80;99.90;;;;;;5017469;28;19921;-74
2022/06/30 06:21:10;;;;;;;;;;;19.80;99.90;;;;;;5000186;28;19976;-74
2022/06/30 06:23:36;;;;;;;;;;;19.90;99.90;;;;;;5002004;28;19921;-74
2022/06/30 06:26:01;;;;;;;;;;;20.00;99.90;;;;;;5003614;28;19917;-74
2022/06/30 06:31:11;;;;;;;;;;;20.20;99.90;;;;;;5001939;28;19917;-74
2022/06/30 06:33:38;;;;;;;;;;;20.20;99.90;;;;;;4986592;28;20659;-75
2022/06/30 06:36:04;;;;;;;;;;;20.40;99.90;;;;;;4987844;28;20438;-75
2022/06/30 06:38:30;;;;;;;;;;;20.50;99.90;;;;;;5002311;28;19921;-75
2022/06/30 06:40:55;;;;;;;;;;;20.60;99.90;;;;;;5001647;28;19928;-74
2022/06/30 06:43:21;;;;;;;;;;;20.70;99.90;;;;;;4985222;28;20007;-74
2022/06/30 06:45:46;;;;;;;;;;;20.90;99.90;;;;;;5003377;28;20008;-75
2022/06/30 06:48:12;;;;;;;;;;;21.00;99.90;;;;;;5004075;28;19956;-75
2022/06/30 06:50:37;;;;;;;;;;;21.10;99.90;;;;;;5001387;28;20546;-74
2022/06/30 06:53:03;;;;;;;;;;;21.20;99.90;;;;;;5001405;28;20015;-74
2022/06/30 06:55:29;;;;;;;;;;;21.30;99.90;;;;;;5006864;28;20310;-74
2022/06/30 06:57:55;;;;;;;;;;;21.40;99.90;;;;;;5008448;28;19985;-75
2022/06/30 07:00:21;;;;;;;;;;;21.50;99.90;;;;;;5009750;28;20004;-74
2022/06/30 07:02:46;;;;;;;;;;;21.70;99.90;;;;;;5004423;28;19924;-75
2022/06/30 07:05:12;;;;;;;;;;;21.80;99.90;;;;;;5000466;28;19932;-75
2022/06/30 07:07:38;;;;;;;;;;;21.90;99.90;;;;;;4999301;28;19928;-75
2022/06/30 07:10:05;;;;;;;;;;;22.00;99.90;;;;;;5001212;28;20368;-74
2022/06/30 07:12:31;;;;;;;;;;;22.10;99.90;;;;;;5000958;28;20303;-74
2022/06/30 07:14:56;;;;;;;;;;;22.20;99.90;;;;;;5001160;28;19925;-75
2022/06/30 07:17:22;;;;;;;;;;;22.40;99.90;;;;;;5002514;28;21489;-74
2022/06/30 07:19:48;;;;;;;;;;;22.50;99.90;;;;;;5003989;28;19925;-74
2022/06/30 07:22:13;;;;;;;;;;;22.60;99.90;;;;;;5003304;28;20526;-74
2022/06/30 07:24:39;;;;;;;;;;;22.70;99.90;;;;;;5001977;28;19917;-74
2022/06/30 07:27:04;;;;;;;;;;;22.90;99.90;;;;;;5002679;28;20521;-74
2022/06/30 07:29:30;;;;;;;;;;;23.00;99.90;;;;;;4986195;28;20363;-74
2022/06/30 07:31:56;;;;;;;;;;;23.10;99.90;;;;;;4999197;28;19917;-74
2022/06/30 07:34:22;;;;;;;;;;;23.20;99.90;;;;;;5001032;28;20460;-74
2022/06/30 07:36:48;;;;;;;;;;;23.30;99.90;;;;;;5000942;28;20032;-74
2022/06/30 07:39:13;;;;;;;;;;;23.40;99.90;;;;;;4999824;28;19917;-75
2022/06/30 07:41:39;;;;;;;;;;;23.50;99.90;;;;;;5001861;28;19928;-74
2022/06/30 07:44:04;;;;;;;;;;;23.60;99.90;;;;;;5002185;28;19921;-74
2022/06/30 07:46:30;;;;;;;;;;;23.80;99.90;;;;;;5002762;28;19917;-75
2022/06/30 07:48:55;;;;;;;;;;;23.80;99.90;;;;;;5002188;28;19924;-75
2022/06/30 07:51:21;;;;;;;;;;;23.90;99.90;;;;;;4998418;28;19925;-76
2022/06/30 07:53:47;;;;;;;;;;;24.10;99.90;;;;;;5018043;28;20388;-75
2022/06/30 07:56:13;;;;;;;;;;;24.20;99.90;;;;;;5008767;28;19925;-75
2022/06/30 07:58:39;;;;;;;;;;;24.30;99.90;;;;;;5003344;28;20288;-75
2022/06/30 08:01:04;;;;;;;;;;;24.50;99.90;;;;;;5011678;28;20394;-75
2022/06/30 08:03:30;;;;;;;;;;;24.50;99.90;;;;;;5006779;28;19917;-75
2022/06/30 08:05:56;;;;;;;;;;;24.60;99.90;;;;;;4990741;28;20041;-76
2022/06/30 08:08:21;;;;;;;;;;;24.70;99.90;;;;;;5007366;28;19917;-75
2022/06/30 08:10:47;;;;;;;;;;;24.80;99.90;;;;;;5008188;28;19917;-76
2022/06/30 08:13:12;;;;;;;;;;;25.00;99.90;;;;;;5002548;28;21122;-75
2022/06/30 08:15:38;;;;;;;;;;;25.10;99.90;;;;;;4999551;28;20395;-76
2022/06/30 08:18:04;;;;;;;;;;;25.10;99.90;;;;;;5008570;28;19948;-76
2022/06/30 08:20:30;;;;;;;;;;;25.30;99.90;;;;;;5003047;28;20284;-76
2022/06/30 08:22:55;;;;;;;;;;;25.40;99.90;;;;;;5005682;28;19917;-76
2022/06/30 08:25:21;;;;;;;;;;;25.50;99.90;;;;;;5004538;28;20008;-75
2022/06/30 08:27:47;;;;;;;;;;;25.60;99.90;;;;;;4989268;28;19957;-75
2022/06/30 08:30:12;;;;;;;;;;;25.70;99.90;;;;;;5014065;28;19991;-76
2022/06/30 08:32:38;;;;;;;;;;;25.80;99.90;;;;;;5011448;28;19922;-76
2022/06/30 08:35:04;;;;;;;;;;;25.90;99.90;;;;;;5010106;28;19921;-75
2022/06/30 08:37:29;;;;;;;;;;;25.90;99.90;;;;;;5008910;28;19921;-74
2022/06/30 08:42:40;;;;;;;;;;;26.10;99.90;;;;;;5004712;28;19917;-74
2022/06/30 08:45:17;;;;;;;;;;;26.20;99.90;;;;;;5011959;28;19925;-74
2022/06/30 08:47:44;;;;;;;;;;;26.30;99.90;;;;;;5010920;28;20429;-74
2022/06/30 08:50:10;;;;;;;;;;;26.30;99.90;;;;;;5011069;28;19917;-74
2022/06/30 08:52:45;;;;;;;;;;;26.40;99.90;;;;;;5006438;28;19976;-74
2022/06/30 08:55:12;;;;;;;;;;;26.40;99.90;;;;;;5027187;28;20380;-74
2022/06/30 08:57:39;;;;;;;;;;;26.60;99.90;;;;;;5011030;28;19922;-74
2022/06/30 09:00:05;;;;;;;;;;;26.70;99.90;;;;;;5003087;28;19983;-74
2022/06/30 09:02:31;;;;;;;;;;;26.80;99.90;;;;;;4992626;28;20398;-74
2022/06/30 09:04:56;;;;;;;;;;;26.90;99.90;;;;;;4997304;28;20384;-74
2022/06/30 09:07:22;;;;;;;;;;;26.70;99.90;;;;;;4992084;28;20402;-74
2022/06/30 09:09:48;;;;;;;;;;;26.70;99.90;;;;;;5009110;28;20016;-74
2022/06/30 09:12:14;;;;;;;;;;;26.60;99.90;;;;;;5008671;28;19921;-74
2022/06/30 09:14:43;;;;;;;;;;;26.70;99.90;;;;;;5010832;28;20400;-74
2022/06/30 09:17:12;;;;;;;;;;;26.90;99.90;;;;;;5025160;28;19929;-74
2022/06/30 09:19:50;;;;;;;;;;;26.90;99.90;;;;;;5007277;28;20435;-74
2022/06/30 09:22:16;;;;;;;;;;;27.00;99.90;;;;;;5012806;28;20338;-74
2022/06/30 09:24:42;;;;;;;;;;;26.80;99.90;;;;;;5007132;28;19925;-74
2022/06/30 09:27:10;;;;;;;;;;;26.70;99.90;;;;;;5009787;28;20371;-74
2022/06/30 09:29:45;;;;;;;;;;;26.80;99.90;;;;;;5007269;28;20360;-74
2022/06/30 09:32:11;;;;;;;;;;;26.90;99.90;;;;;;5010036;28;20381;-74
2022/06/30 09:34:38;;;;;;;;;;;27.00;99.90;;;;;;4995996;28;19917;-74
2022/06/30 09:37:14;;;;;;;;;;;27.20;99.90;;;;;;5005519;28;19948;-74
2022/06/30 09:39:43;;;;;;;;;;;27.20;99.90;;;;;;5010087;28;19921;-74
2022/06/30 09:42:09;;;;;;;;;;;27.30;99.90;;;;;;5006784;28;19921;-74
2022/06/30 09:44:35;;;;;;;;;;;27.40;99.90;;;;;;5011336;28;19925;-74
2022/06/30 09:47:03;;;;;;;;;;;27.50;99.90;;;;;;5009928;28;19917;-74
2022/06/30 09:49:33;;;;;;;;;;;27.60;99.90;;;;;;5007180;28;20411;-73
2022/06/30 09:51:59;;;;;;;;;;;27.60;99.90;;;;;;5008212;28;20379;-74
2022/06/30 09:54:26;;;;;;;;;;;27.70;99.80;;;;;;4999303;28;19921;-74
2022/06/30 09:57:05;;;;;;;;;;;27.90;99.90;;;;;;5011041;28;19921;-74
2022/06/30 09:59:31;;;;;;;;;;;28.10;99.90;;;;;;5008152;28;20288;-74
2022/06/30 10:01:58;;;;;;;;;;;28.30;99.90;;;;;;5009273;28;19917;-74
2022/06/30 10:04:24;;;;;;;;;;;28.20;99.60;;;;;;5007196;28;20331;-74
2022/06/30 10:06:51;;;;;;;;;;;28.30;99.90;;;;;;5011177;28;20290;-74
2022/06/30 10:09:17;;;;;;;;;;;28.30;94.00;;;;;;5006828;28;20012;-74
2022/06/30 10:11:46;;;;;;;;;;;28.40;99.90;;;;;;5010114;28;19951;-74
2022/06/30 10:14:14;;;;;;;;;;;28.60;99.00;;;;;;5011595;28;20307;-74
2022/06/30 10:16:41;;;;;;;;;;;28.70;96.10;;;;;;5010179;28;19979;-74
2022/06/30 10:19:09;;;;;;;;;;;28.90;93.30;;;;;;5009423;28;20298;-74
2022/06/30 10:21:36;;;;;;;;;;;29.00;94.80;;;;;;5013520;28;20334;-74
2022/06/30 10:24:02;;;;;;;;;;;29.20;92.90;;;;;;4990411;28;19960;-74
2022/06/30 10:29:12;;;;;;;;;;;29.60;92.60;;;;;;5004480;28;20392;-74
2022/06/30 10:31:42;;;;;;;;;;;29.80;87.20;;;;;;5007244;28;19985;-74
2022/06/30 10:34:15;;;;;;;;;;;29.90;93.50;;;;;;5007103;28;19956;-74
2022/06/30 10:36:46;;;;;;;;;;;29.90;87.80;;;;;;5004494;28;19925;-74
2022/06/30 10:39:31;;;;;;;;;;;29.90;91.40;;;;;;5006459;28;19965;-74
2022/06/30 10:41:56;;;;;;;;;;;29.90;87.90;;;;;;5000213;28;19921;-74
2022/06/30 10:44:22;;;;;;;;;;;29.90;88.00;;;;;;5011214;28;20426;-74
2022/06/30 10:46:48;;;;;;;;;;;29.90;87.60;;;;;;5012435;28;19917;-74
2022/06/30 10:49:14;;;;;;;;;;;29.70;90.60;;;;;;5003052;28;20314;-74
2022/06/30 10:51:40;;;;;;;;;;;29.50;93.20;;;;;;5008065;28;19921;-74
2022/06/30 10:54:06;;;;;;;;;;;29.30;91.40;;;;;;5002482;28;19921;-74
2022/06/30 10:56:51;;;;;;;;;;;29.10;93.00;;;;;;5023114;28;19917;-74
2022/06/30 10:59:25;;;;;;;;;;;29.00;91.50;;;;;;5002554;28;19971;-74
2022/06/30 11:02:20;;;;;;;;;;;28.80;97.10;;;;;;5005327;28;19932;-73
2022/06/30 11:04:50;;;;;;;;;;;28.90;95.50;;;;;;5007059;28;19921;-74
2022/06/30 11:07:20;;;;;;;;;;;29.20;91.70;;;;;;5004617;28;20004;-74
2022/06/30 11:09:49;;;;;;;;;;;29.50;94.60;;;;;;4986199;28;19925;-74
2022/06/30 11:12:15;;;;;;;;;;;29.80;94.80;;;;;;4990734;28;19921;-74
2022/06/30 11:14:45;;;;;;;;;;;30.10;94.00;;;;;;5007883;28;19979;-74
2022/06/30 11:17:14;;;;;;;;;;;30.40;91.40;;;;;;5023430;28;19925;-74
2022/06/30 11:19:40;;;;;;;;;;;30.60;88.40;;;;;;5008070;28;19932;-74
2022/06/30 11:22:07;;;;;;;;;;;30.60;83.70;;;;;;5009683;28;20008;-73
2022/06/30 11:24:35;;;;;;;;;;;30.50;73.10;;;;;;4994056;28;19921;-74
2022/06/30 11:27:22;;;;;;;;;;;30.30;72.30;;;;;;5008487;28;19917;-74
2022/06/30 11:29:48;;;;;;;;;;;30.00;69.80;;;;;;4989124;28;19965;-74
2022/06/30 11:32:13;;;;;;;;;;;30.10;71.40;;;;;;5006383;28;19937;-74
2022/06/30 11:34:40;;;;;;;;;;;30.30;69.20;;;;;;5007563;28;20343;-74
2022/06/30 11:37:09;;;;;;;;;;;30.40;60.90;;;;;;5009094;28;19956;-74
2022/06/30 11:39:35;;;;;;;;;;;30.50;65.70;;;;;;5005778;28;19917;-74
2022/06/30 11:42:06;;;;;;;;;;;30.50;68.90;;;;;;5005103;28;19917;-74
2022/06/30 11:44:33;;;;;;;;;;;30.50;63.60;;;;;;5005749;28;19917;-74
2022/06/30 11:46:59;;;;;;;;;;;30.70;73.00;;;;;;5004706;28;19924;-74
2022/06/30 11:49:27;;;;;;;;;;;30.80;72.60;;;;;;5005295;28;19921;-74
2022/06/30 11:51:54;;;;;;;;;;;30.80;71.80;;;;;;5005621;28;19925;-74
2022/06/30 11:54:21;;;;;;;;;;;30.40;72.10;;;;;;5008669;28;19925;-74
2022/06/30 11:56:47;;;;;;;;;;;30.30;76.20;;;;;;5007517;28;19921;-74
2022/06/30 11:59:13;;;;;;;;;;;30.10;78.20;;;;;;5006895;28;19940;-74
2022/06/30 12:01:39;;;;;;;;;;;30.00;78.50;;;;;;5021175;28;19917;-74
2022/06/30 12:04:22;;;;;;;;;;;30.10;77.00;;;;;;5003146;28;19924;-74
2022/06/30 12:06:48;;;;;;;;;;;30.40;76.20;;;;;;5003118;28;20016;-74
2022/06/30 12:09:13;;;;;;;;;;;30.60;69.20;;;;;;5000720;28;20020;-73
2022/06/30 12:11:39;;;;;;;;;;;30.70;64.70;;;;;;5011650;28;19963;-74
2022/06/30 12:14:04;;;;;;;;;;;30.70;63.30;;;;;;5004504;28;20012;-73
2022/06/30 12:16:30;;;;;;;;;;;30.40;59.60;;;;;;5023077;28;20106;-74
2022/06/30 12:18:55;;;;;;;;;;;30.60;63.00;;;;;;5006833;28;19944;-74
2022/06/30 12:21:21;;;;;;;;;;;30.80;62.70;;;;;;5004711;28;19917;-74
2022/06/30 12:23:48;;;;;;;;;;;31.00;64.50;;;;;;5008335;28;19917;-74
2022/06/30 12:26:14;;;;;;;;;;;31.00;61.30;;;;;;5007444;28;19988;-74
2022/06/30 12:28:52;;;;;;;;;;;31.10;61.10;;;;;;5006461;28;19928;-74
2022/06/30 12:31:25;;;;;;;;;;;31.20;62.20;;;;;;5005304;28;19917;-74
2022/06/30 12:33:51;;;;;;;;;;;31.30;61.30;;;;;;5005219;28;19933;-74
2022/06/30 12:36:17;;;;;;;;;;;31.30;65.30;;;;;;5004982;28;20063;-73
2022/06/30 12:38:43;;;;;;;;;;;31.30;64.10;;;;;;5006450;28;19921;-74
2022/06/30 12:41:10;;;;;;;;;;;31.30;67.80;;;;;;5006438;28;19917;-74
2022/06/30 12:43:47;;;;;;;;;;;31.30;69.60;;;;;;4989584;28;19922;-74
2022/06/30 12:46:14;;;;;;;;;;;31.10;68.90;;;;;;5005525;28;20015;-74
2022/06/30 12:48:50;;;;;;;;;;;31.10;68.00;;;;;;5000849;28;19917;-74
2022/06/30 12:51:17;;;;;;;;;;;31.10;72.00;;;;;;5002920;28;19925;-74
2022/06/30 12:53:45;;;;;;;;;;;31.30;68.10;;;;;;5005388;28;19971;-73
2022/06/30 12:56:17;;;;;;;;;;;31.30;66.60;;;;;;5003800;28;20015;-74
2022/06/30 12:58:54;;;;;;;;;;;31.40;68.60;;;;;;5000945;28;19929;-74
2022/06/30 13:01:20;;;;;;;;;;;31.40;67.60;;;;;;5003746;28;19921;-74
2022/06/30 13:03:52;;;;;;;;;;;31.40;65.10;;;;;;5002478;28;19917;-74
2022/06/30 13:06:18;;;;;;;;;;;31.40;68.30;;;;;;5002584;28;19923;-74
2022/06/30 13:08:46;;;;;;;;;;;31.40;67.70;;;;;;4999729;28;20016;-74
2022/06/30 13:11:15;;;;;;;;;;;31.30;69.00;;;;;;4997567;28;20268;-74
2022/06/30 13:13:42;;;;;;;;;;;31.30;71.90;;;;;;5004860;28;20004;-74
2022/06/30 13:16:07;;;;;;;;;;;31.30;74.40;;;;;;5009666;28;19936;-74
2022/06/30 13:18:33;;;;;;;;;;;31.30;69.60;;;;;;5009860;28;19929;-74
2022/06/30 13:20:58;;;;;;;;;;;31.40;70.00;;;;;;4997153;28;20747;-74
2022/06/30 13:23:24;;;;;;;;;;;31.40;72.80;;;;;;5007247;28;19918;-74
2022/06/30 13:25:50;;;;;;;;;;;31.40;70.40;;;;;;5011246;28;20004;-74
2022/06/30 13:28:15;;;;;;;;;;;31.40;70.90;;;;;;5012053;28;19924;-74
2022/06/30 13:30:41;;;;;;;;;;;31.40;70.90;;;;;;5008449;28;19921;-75
2022/06/30 13:33:07;;;;;;;;;;;31.60;69.50;;;;;;5011478;28;19917;-75
2022/06/30 13:35:32;;;;;;;;;;;31.80;69.10;;;;;;5011215;28;19921;-74
2022/06/30 13:37:58;;;;;;;;;;;31.80;67.50;;;;;;5007970;28;19925;-74
2022/06/30 13:40:23;;;;;;;;;;;31.70;68.90;;;;;;5008018;28;19917;-74
2022/06/30 13:42:49;;;;;;;;;;;31.60;68.60;;;;;;5010609;28;19921;-74
2022/06/30 13:45:15;;;;;;;;;;;31.60;69.60;;;;;;5008992;28;19918;-74
2022/06/30 13:47:40;;;;;;;;;;;31.60;72.30;;;;;;5010517;28;19928;-74
2022/06/30 13:50:06;;;;;;;;;;;31.60;69.70;;;;;;5007038;28;19925;-74
2022/06/30 13:52:34;;;;;;;;;;;31.60;71.60;;;;;;5008866;28;20431;-74
2022/06/30 13:55:00;;;;;;;;;;;31.50;76.20;;;;;;5010657;28;19925;-74
2022/06/30 13:57:25;;;;;;;;;;;31.50;71.40;;;;;;5017304;28;19921;-74
2022/06/30 13:59:51;;;;;;;;;;;31.60;72.50;;;;;;5008573;28;20006;-74
2022/06/30 14:02:16;;;;;;;;;;;31.70;76.90;;;;;;5011140;28;19921;-74
2022/06/30 14:04:42;;;;;;;;;;;31.90;72.20;;;;;;5011394;28;19921;-74
2022/06/30 14:07:07;;;;;;;;;;;32.00;73.40;;;;;;5011758;28;19926;-74
2022/06/30 14:09:33;;;;;;;;;;;32.30;71.90;;;;;;5010495;28;19917;-74
2022/06/30 14:12:00;;;;;;;;;;;32.40;70.50;;;;;;5007812;28;19921;-74
2022/06/30 14:14:27;;;;;;;;;;;32.40;69.60;;;;;;5008924;28;19925;-74
2022/06/30 14:16:55;;;;;;;;;;;32.40;67.50;;;;;;5006862;28;20047;-74
2022/06/30 14:19:20;;;;;;;;;;;32.20;69.20;;;;;;5009453;28;19918;-74
2022/06/30 14:21:46;;;;;;;;;;;32.00;70.10;;;;;;5009647;28;20000;-74
2022/06/30 14:24:11;;;;;;;;;;;31.80;68.20;;;;;;5007407;28;19969;-74
2022/06/30 14:26:37;;;;;;;;;;;31.60;69.60;;;;;;5007260;28;19918;-74
2022/06/30 14:29:02;;;;;;;;;;;31.50;70.00;;;;;;5007228;28;19984;-74
2022/06/30 14:31:28;;;;;;;;;;;31.40;68.60;;;;;;4989148;28;19964;-74
2022/06/30 14:33:54;;;;;;;;;;;31.30;71.10;;;;;;5006513;28;19917;-74
2022/06/30 14:36:19;;;;;;;;;;;31.30;72.50;;;;;;5008122;28;19925;-74